createdAt,value
2022-10-02T00:02:30.756Z,83.90
2022-10-02T00:05:01.795Z,84.00
2022-10-02T00:07:41.406Z,84.10
2022-10-02T00:10:18.993Z,84.10
2022-10-02T00:12:53.436Z,84.10
2022-10-02T00:15:28.196Z,84.10
2022-10-02T00:18:03.186Z,84.20
2022-10-02T00:20:56.224Z,84.20
2022-10-02T00:23:45.930Z,84.30
2022-10-02T00:26:40.619Z,84.30
2022-10-02T00:29:26.141Z,84.30
2022-10-02T00:32:05.257Z,84.10
2022-10-02T00:34:56.705Z,84.20
2022-10-02T00:37:42.761Z,84.90
2022-10-02T00:40:34.739Z,84.10
2022-10-02T00:43:22.813Z,84.00
2022-10-02T00:46:23.526Z,84.60
2022-10-02T00:48:56.020Z,83.90
2022-10-02T00:51:45.787Z,83.90
2022-10-02T00:54:24.322Z,83.80
2022-10-02T00:57:00.240Z,83.90
2022-10-02T00:59:53.791Z,83.80
2022-10-02T01:02:26.870Z,83.40
2022-10-02T01:05:09.916Z,83.10
2022-10-02T01:07:42.385Z,82.90
2022-10-02T01:10:11.442Z,82.90
2022-10-02T01:12:39.701Z,82.80
2022-10-02T01:15:21.092Z,82.80
2022-10-02T01:17:51.999Z,82.70
2022-10-02T01:20:42.156Z,82.60
2022-10-02T01:23:22.857Z,82.70
2022-10-02T01:25:50.736Z,82.90
2022-10-02T01:28:19.142Z,83.30
2022-10-02T01:30:50.318Z,83.70
2022-10-02T01:33:18.247Z,83.80
2022-10-02T01:35:46.264Z,84.20
2022-10-02T01:38:17.149Z,84.40
2022-10-02T01:40:44.639Z,84.80
2022-10-02T01:43:26.951Z,84.90
2022-10-02T01:46:12.658Z,85.00
2022-10-02T01:48:50.116Z,84.70
2022-10-02T01:51:56.176Z,84.50
2022-10-02T01:54:38.719Z,84.70
2022-10-02T01:57:39.791Z,84.80
2022-10-02T02:00:28.874Z,84.90
2022-10-02T02:03:15.668Z,85.00
2022-10-02T02:06:00.864Z,84.90
2022-10-02T02:08:40.226Z,85.00
2022-10-02T02:11:14.524Z,85.20
2022-10-02T02:13:55.031Z,85.30
2022-10-02T02:16:45.033Z,85.40
2022-10-02T02:19:37.539Z,85.50
2022-10-02T02:22:17.171Z,85.60
2022-10-02T02:24:58.759Z,85.50
2022-10-02T02:27:31.743Z,85.50
2022-10-02T02:30:05.469Z,85.50
2022-10-02T02:32:37.841Z,85.50
2022-10-02T02:35:13.866Z,85.40
2022-10-02T02:37:42.142Z,85.20
2022-10-02T02:40:20.763Z,85.10
2022-10-02T02:42:58.894Z,85.10
2022-10-02T02:45:32.559Z,84.90
2022-10-02T02:48:09.386Z,84.90
2022-10-02T02:50:45.619Z,84.80
2022-10-02T02:53:20.204Z,84.70
2022-10-02T02:56:02.356Z,84.60
2022-10-02T02:58:57.789Z,84.50
2022-10-02T03:01:26.398Z,84.20
2022-10-02T03:03:54.040Z,83.90
2022-10-02T03:06:27.681Z,83.80
2022-10-02T03:08:55.570Z,83.70
2022-10-02T03:11:25.824Z,83.70
2022-10-02T03:14:20.839Z,83.80
2022-10-02T03:17:29.161Z,84.10
2022-10-02T03:20:31.665Z,84.30
2022-10-02T03:23:28.042Z,84.60
2022-10-02T03:26:10.624Z,84.60
2022-10-02T03:28:56.374Z,84.60
2022-10-02T03:31:27.639Z,84.70
2022-10-02T03:33:57.284Z,84.70
2022-10-02T03:36:25.498Z,84.60
2022-10-02T03:39:23.038Z,84.60
2022-10-02T03:41:45.912Z,84.50
2022-10-02T03:44:12.880Z,84.50
2022-10-02T03:46:40.272Z,84.50
2022-10-02T03:49:07.660Z,84.50
2022-10-02T03:51:34.891Z,84.60
2022-10-02T03:54:02.383Z,84.60
2022-10-02T03:56:54.492Z,84.50
2022-10-02T03:59:43.454Z,84.60
2022-10-02T04:02:29.878Z,84.70
2022-10-02T04:05:06.016Z,84.80
2022-10-02T04:07:39.888Z,84.80
2022-10-02T04:10:40.160Z,84.80
2022-10-02T04:13:18.547Z,84.80
2022-10-02T04:15:55.675Z,84.70
2022-10-02T04:18:47.825Z,84.70
2022-10-02T04:21:45.585Z,84.60
2022-10-02T04:24:28.655Z,84.60
2022-10-02T04:27:10.886Z,84.60
2022-10-02T04:29:43.593Z,84.70
2022-10-02T04:32:37.460Z,84.70
2022-10-02T04:35:32.644Z,84.60
2022-10-02T04:38:15.169Z,84.40
2022-10-02T04:41:19.307Z,83.80
2022-10-02T04:44:03.738Z,83.80
2022-10-02T04:46:53.702Z,83.90
2022-10-02T04:49:40.132Z,84.00
2022-10-02T04:52:42.467Z,83.90
2022-10-02T04:55:18.631Z,83.80
2022-10-02T04:58:00.852Z,83.70
2022-10-02T05:00:36.447Z,84.00
2022-10-02T05:03:10.232Z,84.00
2022-10-02T05:06:14.860Z,83.90
2022-10-02T05:09:08.201Z,84.00
2022-10-02T05:11:43.356Z,84.10
2022-10-02T05:14:41.671Z,84.20
2022-10-02T05:17:27.633Z,84.20
2022-10-02T05:20:32.128Z,84.10
2022-10-02T05:23:20.346Z,84.10
2022-10-02T05:26:08.575Z,84.20
2022-10-02T05:29:04.291Z,84.20
2022-10-02T05:32:16.237Z,84.10
2022-10-02T05:35:10.283Z,83.80
2022-10-02T05:37:49.751Z,83.80
2022-10-02T05:40:55.162Z,83.90
2022-10-02T05:43:40.342Z,84.00
2022-10-02T05:46:26.410Z,84.10
2022-10-02T05:49:08.812Z,84.00
2022-10-02T05:51:57.439Z,84.00
2022-10-02T05:54:36.581Z,84.20
2022-10-02T05:57:25.002Z,84.40
2022-10-02T06:00:24.547Z,84.30
2022-10-02T06:03:17.942Z,84.40
2022-10-02T06:06:02.775Z,84.40
2022-10-02T06:08:53.672Z,84.50
2022-10-02T06:11:27.109Z,84.50
2022-10-02T06:14:37.042Z,84.30
2022-10-02T06:17:24.714Z,84.10
2022-10-02T06:20:04.135Z,83.60
2022-10-02T06:23:21.260Z,83.30
2022-10-02T06:26:09.979Z,83.20
2022-10-02T06:28:56.811Z,83.20
2022-10-02T06:32:00.256Z,83.10
2022-10-02T06:34:29.254Z,83.00
2022-10-02T06:37:20.262Z,82.60
2022-10-02T06:40:15.590Z,82.20
2022-10-02T06:43:19.074Z,82.00
2022-10-02T06:46:05.535Z,82.10
2022-10-02T06:48:46.464Z,82.00
2022-10-02T06:51:42.963Z,82.00
2022-10-02T06:54:21.324Z,82.10
2022-10-02T06:57:06.009Z,82.10
2022-10-02T07:00:03.288Z,82.10
2022-10-02T07:02:49.583Z,82.20
2022-10-02T07:05:44.552Z,82.20
2022-10-02T07:08:16.618Z,81.80
2022-10-02T07:11:09.748Z,81.50
2022-10-02T07:14:07.421Z,80.90
2022-10-02T07:16:57.897Z,80.60
2022-10-02T07:19:49.806Z,79.90
2022-10-02T07:22:45.653Z,79.60
2022-10-02T07:25:32.098Z,79.10
2022-10-02T07:28:27.760Z,79.30
2022-10-02T07:31:37.398Z,79.30
2022-10-02T07:34:43.796Z,79.40
2022-10-02T07:37:27.798Z,79.30
2022-10-02T07:40:10.939Z,78.10
2022-10-02T07:43:00.362Z,78.30
2022-10-02T07:45:29.554Z,78.70
2022-10-02T07:48:08.419Z,79.00
2022-10-02T07:50:41.679Z,79.20
2022-10-02T07:53:29.282Z,79.00
2022-10-02T07:55:57.217Z,78.80
2022-10-02T07:58:49.988Z,78.90
2022-10-02T08:01:24.911Z,79.30
2022-10-02T08:04:04.411Z,79.40
2022-10-02T08:06:34.001Z,78.90
2022-10-02T08:09:18.155Z,78.90
2022-10-02T08:12:04.105Z,78.60
2022-10-02T08:14:41.583Z,78.40
2022-10-02T08:17:38.708Z,77.40
2022-10-02T08:20:30.786Z,76.90
2022-10-02T08:23:10.676Z,76.40
2022-10-02T08:25:50.255Z,75.80
2022-10-02T08:28:42.130Z,73.60
2022-10-02T08:31:16.840Z,73.30
2022-10-02T08:33:45.619Z,73.30
2022-10-02T08:36:19.089Z,73.70
2022-10-02T08:38:54.954Z,73.00
2022-10-02T08:41:51.104Z,72.40
2022-10-02T08:44:43.132Z,71.40
2022-10-02T08:47:33.316Z,71.30
2022-10-02T08:50:52.270Z,71.50
2022-10-02T08:53:44.537Z,71.20
2022-10-02T08:56:39.290Z,70.10
2022-10-02T08:59:50.900Z,69.80
2022-10-02T09:02:58.040Z,69.20
2022-10-02T09:06:02.951Z,68.20
2022-10-02T09:09:04.878Z,68.40
2022-10-02T09:11:46.638Z,67.60
2022-10-02T09:14:58.647Z,67.40
2022-10-02T09:17:32.578Z,66.90
2022-10-02T09:20:18.517Z,66.70
2022-10-02T09:23:11.276Z,66.80
2022-10-02T09:26:08.086Z,66.00
2022-10-02T09:29:01.681Z,66.60
2022-10-02T09:31:57.045Z,66.70
2022-10-02T09:34:47.946Z,66.60
2022-10-02T09:37:41.844Z,65.70
2022-10-02T09:40:38.108Z,65.00
2022-10-02T09:43:32.697Z,65.20
2022-10-02T09:46:07.108Z,65.20
2022-10-02T09:48:38.027Z,65.00
2022-10-02T09:51:34.692Z,64.50
2022-10-02T09:54:36.234Z,63.90
2022-10-02T09:57:16.569Z,63.50
2022-10-02T10:00:10.214Z,63.50
2022-10-02T10:03:06.435Z,62.90
2022-10-02T10:05:55.111Z,62.90
2022-10-02T10:08:50.594Z,62.20
2022-10-02T10:12:02.204Z,61.80
2022-10-02T10:15:09.170Z,61.20
2022-10-02T10:18:05.877Z,61.10
2022-10-02T10:20:51.999Z,61.20
2022-10-02T10:23:38.307Z,60.00
2022-10-02T10:26:44.146Z,60.10
2022-10-02T10:29:29.800Z,61.20
2022-10-02T10:32:16.945Z,61.40
2022-10-02T10:34:52.080Z,60.60
2022-10-02T10:38:15.994Z,60.00
2022-10-02T10:41:27.930Z,59.90
2022-10-02T10:44:07.586Z,59.50
2022-10-02T10:46:55.772Z,59.60
2022-10-02T10:49:39.429Z,60.00
2022-10-02T10:52:33.656Z,59.80
2022-10-02T10:55:09.936Z,58.50
2022-10-02T10:57:55.754Z,58.60
2022-10-02T11:00:32.966Z,58.80
2022-10-02T11:03:18.524Z,59.10
2022-10-02T11:06:04.399Z,58.80
2022-10-02T11:08:47.099Z,58.20
2022-10-02T11:11:27.869Z,57.40
2022-10-02T11:14:16.910Z,57.80
2022-10-02T11:17:08.941Z,57.60
2022-10-02T11:20:04.343Z,56.70
2022-10-02T11:22:54.342Z,56.70
2022-10-02T11:25:52.926Z,57.20
2022-10-02T11:28:41.099Z,57.30
2022-10-02T11:31:40.786Z,58.40
2022-10-02T11:34:40.384Z,58.00
2022-10-02T11:37:24.534Z,57.70
2022-10-02T11:40:03.962Z,57.00
2022-10-02T11:43:00.787Z,56.40
2022-10-02T11:46:05.558Z,56.60
2022-10-02T11:48:57.170Z,56.00
2022-10-02T11:51:54.659Z,56.20
2022-10-02T11:55:03.990Z,58.80
2022-10-02T11:57:55.413Z,58.10
2022-10-02T12:01:00.327Z,57.10
2022-10-02T12:03:58.587Z,57.00
2022-10-02T12:06:50.759Z,57.50
2022-10-02T12:09:36.201Z,56.50
2022-10-02T12:12:03.354Z,56.50
2022-10-02T12:14:39.675Z,57.90
2022-10-02T12:17:32.036Z,56.60
2022-10-02T12:20:23.676Z,56.90
2022-10-02T12:23:18.719Z,57.00
2022-10-02T12:26:43.577Z,56.70
2022-10-02T12:29:30.825Z,56.10
2022-10-02T12:32:31.068Z,55.90
2022-10-02T12:35:31.511Z,55.80
2022-10-02T12:38:20.478Z,55.70
2022-10-02T12:40:56.864Z,56.90
2022-10-02T12:43:55.540Z,55.60
2022-10-02T12:46:46.190Z,55.70
2022-10-02T12:49:16.557Z,56.20
2022-10-02T12:52:12.823Z,55.60
2022-10-02T12:55:15.909Z,55.70
2022-10-02T12:57:59.083Z,55.30
2022-10-02T13:01:07.325Z,55.20
2022-10-02T13:03:47.357Z,55.10
2022-10-02T13:06:37.794Z,54.60
2022-10-02T13:09:05.712Z,54.20
2022-10-02T13:11:44.736Z,54.60
2022-10-02T13:14:44.974Z,55.00
2022-10-02T13:17:46.371Z,55.30
2022-10-02T13:20:40.081Z,55.70
2022-10-02T13:23:29.389Z,56.20
2022-10-02T13:26:23.400Z,55.80
2022-10-02T13:29:11.296Z,55.40
2022-10-02T13:32:04.084Z,55.80
2022-10-02T13:35:03.915Z,55.50
2022-10-02T13:37:56.817Z,55.90
2022-10-02T13:40:33.165Z,55.90
2022-10-02T13:43:24.073Z,56.00
2022-10-02T13:46:30.488Z,56.10
2022-10-02T13:49:43.540Z,55.70
2022-10-02T13:53:03.705Z,56.20
2022-10-02T13:55:38.963Z,56.10
2022-10-02T13:58:24.574Z,56.40
2022-10-02T14:01:39.855Z,56.60
2022-10-02T14:04:28.101Z,56.80
2022-10-02T14:07:09.686Z,56.80
2022-10-02T14:09:58.504Z,56.60
2022-10-02T14:12:34.937Z,56.70
2022-10-02T14:15:31.458Z,56.80
2022-10-02T14:18:40.849Z,56.90
2022-10-02T14:21:31.894Z,57.20
2022-10-02T14:24:13.941Z,56.80
2022-10-02T14:26:59.216Z,56.80
2022-10-02T14:30:09.579Z,57.00
2022-10-02T14:32:36.596Z,57.10
2022-10-02T14:35:24.353Z,57.10
2022-10-02T14:38:10.071Z,56.50
2022-10-02T14:40:46.709Z,57.10
2022-10-02T14:43:21.862Z,57.70
2022-10-02T14:46:09.780Z,57.80
2022-10-02T14:48:49.264Z,58.00
2022-10-02T14:51:53.608Z,58.40
2022-10-02T14:54:36.151Z,58.70
2022-10-02T14:57:03.293Z,58.60
2022-10-02T14:59:46.380Z,58.90
2022-10-02T15:02:22.799Z,59.20
2022-10-02T15:05:17.704Z,59.50
2022-10-02T15:07:45.996Z,59.50
2022-10-02T15:10:22.610Z,59.10
2022-10-02T15:12:59.671Z,59.80
2022-10-02T15:15:47.353Z,60.00
2022-10-02T15:18:38.670Z,60.00
2022-10-02T15:21:19.637Z,60.10
2022-10-02T15:23:54.797Z,60.00
2022-10-02T15:26:52.001Z,59.80
2022-10-02T15:29:38.789Z,60.30
2022-10-02T15:32:37.020Z,60.40
2022-10-02T15:35:26.391Z,60.30
2022-10-02T15:38:02.984Z,60.60
2022-10-02T15:40:41.728Z,61.00
2022-10-02T15:43:17.372Z,60.60
2022-10-02T15:45:53.548Z,61.00
2022-10-02T15:48:41.035Z,61.30
2022-10-02T15:51:33.867Z,61.60
2022-10-02T15:54:25.184Z,61.80
2022-10-02T15:57:07.236Z,62.30
2022-10-02T15:59:46.679Z,62.40
2022-10-02T16:02:47.512Z,62.50
2022-10-02T16:05:53.599Z,62.60
2022-10-02T16:09:00.079Z,62.60
2022-10-02T16:11:46.222Z,63.40
2022-10-02T16:14:36.840Z,64.10
2022-10-02T16:17:27.688Z,64.30
2022-10-02T16:20:22.461Z,64.70
2022-10-02T16:23:06.298Z,64.20
2022-10-02T16:25:52.285Z,64.30
2022-10-02T16:28:47.569Z,64.50
2022-10-02T16:31:47.445Z,64.50
2022-10-02T16:34:39.872Z,64.50
2022-10-02T16:37:19.072Z,64.70
2022-10-02T16:40:13.911Z,64.80
2022-10-02T16:43:19.409Z,65.20
2022-10-02T16:46:12.593Z,65.90
2022-10-02T16:48:42.744Z,66.40
2022-10-02T16:51:28.874Z,66.60
2022-10-02T16:54:16.079Z,67.00
2022-10-02T16:57:26.292Z,67.90
2022-10-02T17:00:08.352Z,68.50
2022-10-02T17:03:07.319Z,68.90
2022-10-02T17:05:46.316Z,69.00
2022-10-02T17:08:54.941Z,69.00
2022-10-02T17:11:25.599Z,69.50
2022-10-02T17:14:19.734Z,70.40
2022-10-02T17:16:52.685Z,70.10
2022-10-02T17:19:23.129Z,70.10
2022-10-02T17:22:29.573Z,70.20
2022-10-02T17:25:22.357Z,70.40
2022-10-02T17:28:01.518Z,70.80
2022-10-02T17:30:44.397Z,71.10
2022-10-02T17:33:23.101Z,71.30
2022-10-02T17:36:36.838Z,71.50
2022-10-02T17:39:38.141Z,72.00
2022-10-02T17:42:41.516Z,72.30
2022-10-02T17:45:27.312Z,72.70
2022-10-02T17:47:55.442Z,73.00
2022-10-02T17:50:36.558Z,73.10
2022-10-02T17:53:32.704Z,73.40
2022-10-02T17:56:41.784Z,73.80
2022-10-02T17:59:26.066Z,74.30
2022-10-02T18:02:15.130Z,74.60
2022-10-02T18:05:26.039Z,74.80
2022-10-02T18:08:02.238Z,75.10
2022-10-02T18:11:08.008Z,75.10
2022-10-02T18:14:03.239Z,75.30
2022-10-02T18:16:56.431Z,75.50
2022-10-02T18:20:03.398Z,75.80
2022-10-02T18:22:46.174Z,76.00
2022-10-02T18:25:38.079Z,76.10
2022-10-02T18:28:40.026Z,76.20
2022-10-02T18:31:44.343Z,76.40
2022-10-02T18:34:42.720Z,76.50
2022-10-02T18:37:18.909Z,76.70
2022-10-02T18:40:07.320Z,76.60
2022-10-02T18:42:41.003Z,76.70
2022-10-02T18:45:18.906Z,76.80
2022-10-02T18:47:52.016Z,76.90
2022-10-02T18:50:22.491Z,77.10
2022-10-02T18:53:05.488Z,77.30
2022-10-02T18:55:35.612Z,77.60
2022-10-02T18:58:31.779Z,77.80
2022-10-02T19:01:21.291Z,78.00
2022-10-02T19:04:18.039Z,78.10
2022-10-02T19:07:11.822Z,78.30
2022-10-02T19:09:42.320Z,78.30
2022-10-02T19:12:23.269Z,78.50
2022-10-02T19:14:56.119Z,78.80
2022-10-02T19:17:26.397Z,78.90
2022-10-02T19:19:54.457Z,79.10
2022-10-02T19:22:36.876Z,79.30
2022-10-02T19:25:11.209Z,79.80
2022-10-02T19:27:39.899Z,80.00
2022-10-02T19:30:21.554Z,80.10
2022-10-02T19:32:51.261Z,80.40
2022-10-02T19:35:24.692Z,80.50
2022-10-02T19:37:59.233Z,80.70
2022-10-02T19:40:33.472Z,80.80
2022-10-02T19:43:18.107Z,80.90
2022-10-02T19:45:57.100Z,81.10
2022-10-02T19:48:27.499Z,81.10
2022-10-02T19:51:01.952Z,81.30
2022-10-02T19:53:41.285Z,81.60
2022-10-02T19:56:18.141Z,81.90
2022-10-02T19:58:49.617Z,82.10
2022-10-02T20:01:24.346Z,82.20
2022-10-02T20:03:59.426Z,82.40
2022-10-02T20:06:32.189Z,82.60
2022-10-02T20:09:23.356Z,82.70
2022-10-02T20:12:15.802Z,83.00
2022-10-02T20:14:55.689Z,83.20
2022-10-02T20:17:23.634Z,83.20
2022-10-02T20:19:57.087Z,83.20
2022-10-02T20:22:58.921Z,83.50
2022-10-02T20:25:35.990Z,83.90
2022-10-02T20:28:25.547Z,84.00
2022-10-02T20:31:06.221Z,84.10
2022-10-02T20:33:36.220Z,84.30
2022-10-02T20:36:16.880Z,84.40
2022-10-02T20:38:46.827Z,84.60
2022-10-02T20:41:34.761Z,84.70
2022-10-02T20:44:04.964Z,84.90
2022-10-02T20:46:52.579Z,85.00
2022-10-02T20:49:55.896Z,85.20
2022-10-02T20:52:46.341Z,85.10
2022-10-02T20:55:36.157Z,85.00
2022-10-02T20:58:10.908Z,85.20
2022-10-02T21:01:16.079Z,85.10
2022-10-02T21:04:24.474Z,85.40
2022-10-02T21:07:09.562Z,85.60
2022-10-02T21:09:54.584Z,85.70
2022-10-02T21:12:50.747Z,86.00
2022-10-02T21:15:51.839Z,85.90
2022-10-02T21:18:43.372Z,86.10
2022-10-02T21:21:40.832Z,86.20
2022-10-02T21:24:15.007Z,86.20
2022-10-02T21:27:14.410Z,86.20
2022-10-02T21:30:02.773Z,86.40
2022-10-02T21:32:48.418Z,86.50
2022-10-02T21:35:27.519Z,86.60
2022-10-02T21:38:12.627Z,86.70
2022-10-02T21:40:58.029Z,86.80
2022-10-02T21:44:03.986Z,87.00
2022-10-02T21:46:52.249Z,87.20
2022-10-02T21:49:38.072Z,87.50
2022-10-02T21:52:24.634Z,88.00
2022-10-02T21:55:16.521Z,87.90
2022-10-02T21:58:13.006Z,88.10
2022-10-02T22:01:17.210Z,88.20
2022-10-02T22:04:08.934Z,88.50
2022-10-02T22:06:44.870Z,89.20
2022-10-02T22:09:14.674Z,88.60
2022-10-02T22:11:46.131Z,88.70
2022-10-02T22:14:27.548Z,88.90
2022-10-02T22:17:09.646Z,89.00
2022-10-02T22:19:55.218Z,89.10
2022-10-02T22:22:46.654Z,89.00
2022-10-02T22:25:52.131Z,89.10
2022-10-02T22:28:42.209Z,88.80
2022-10-02T22:31:24.516Z,88.80
2022-10-02T22:34:22.316Z,89.10
2022-10-02T22:37:17.399Z,89.30
2022-10-02T22:39:52.573Z,89.50
2022-10-02T22:42:34.065Z,89.60
2022-10-02T22:45:11.319Z,89.70
2022-10-02T22:48:05.233Z,89.40
2022-10-02T22:50:48.107Z,89.40
2022-10-02T22:53:23.656Z,89.40
2022-10-02T22:55:54.283Z,89.50
2022-10-02T22:58:44.519Z,89.70
2022-10-02T23:01:21.238Z,89.90
2022-10-02T23:03:54.147Z,89.70
2022-10-02T23:06:41.488Z,89.40
2022-10-02T23:09:21.891Z,89.70
2022-10-02T23:12:11.915Z,89.80
2022-10-02T23:14:57.247Z,90.10
2022-10-02T23:18:01.579Z,90.40
2022-10-02T23:20:31.439Z,90.60
2022-10-02T23:23:13.062Z,90.80
2022-10-02T23:25:50.676Z,91.00
2022-10-02T23:28:49.877Z,91.10
2022-10-02T23:31:36.914Z,91.30
2022-10-02T23:34:39.846Z,91.30
2022-10-02T23:38:00.439Z,91.30
2022-10-02T23:40:55.424Z,91.30
2022-10-02T23:43:37.217Z,91.30
2022-10-02T23:46:15.067Z,91.30
2022-10-02T23:48:43.059Z,91.30
2022-10-02T23:51:28.386Z,91.40
2022-10-02T23:54:16.270Z,91.50
2022-10-02T23:56:55.244Z,91.50
2022-10-02T23:59:31.682Z,91.50
